Time;durP1;ratioP1;P1;durP2;ratioP2;P2;SDS_P1;SDS_P2;PMS_P1;PMS_P2;Temp;Humidity;BMP_temperature;BMP_pressure;BME280_temperature;BME280_humidity;BME280_pressure;Samples;Min_cycle;Max_cycle;Signal;HPM_P1;HPM_P2
2021/11/08 00:01:48;;;;;;;33.38;4.78;;;;;;;;;;5062349;28;20488;-46
2021/11/08 00:04:16;;;;;;;43.88;5.20;;;;;;;;;;5058596;28;20078;-44
2021/11/08 00:06:43;;;;;;;33.00;4.60;;;;;;;;;;5062974;28;20056;-39
2021/11/08 00:09:10;;;;;;;29.25;5.03;;;;;;;;;;5054340;28;20381;-47
2021/11/08 00:11:40;;;;;;;37.50;6.00;;;;;;;;;;5058566;28;20506;-43
2021/11/08 00:14:11;;;;;;;32.60;5.30;;;;;;;;;;5052611;28;20033;-44
2021/11/08 00:16:46;;;;;;;33.00;5.40;;;;;;;;;;5056710;28;20032;-44
2021/11/08 00:21:55;;;;;;;33.03;5.40;;;;;;;;;;5057862;28;20424;-44
2021/11/08 00:24:24;;;;;;;35.58;4.82;;;;;;;;;;5061704;28;20052;-45
2021/11/08 00:26:52;;;;;;;40.47;5.28;;;;;;;;;;5058760;28;20032;-44
2021/11/08 00:29:19;;;;;;;41.40;6.43;;;;;;;;;;5063396;28;20048;-45
2021/11/08 00:31:46;;;;;;;31.33;4.90;;;;;;;;;;5058306;28;20025;-43
2021/11/08 00:34:14;;;;;;;29.00;4.72;;;;;;;;;;5065081;28;20035;-43
2021/11/08 00:36:41;;;;;;;34.10;4.85;;;;;;;;;;5053138;28;20025;-57
2021/11/08 00:39:09;;;;;;;32.90;4.75;;;;;;;;;;5064536;28;20025;-45
2021/11/08 00:41:36;;;;;;;35.58;5.18;;;;;;;;;;5039231;28;20037;-46
2021/11/08 00:44:04;;;;;;;34.50;5.85;;;;;;;;;;5063738;28;20063;-45
2021/11/08 00:46:32;;;;;;;39.90;5.65;;;;;;;;;;5059231;28;20024;-41
2021/11/08 00:48:59;;;;;;;37.63;4.40;;;;;;;;;;5068926;28;20127;-45
2021/11/08 00:51:26;;;;;;;27.33;5.00;;;;;;;;;;5067447;28;20036;-40
2021/11/08 00:53:53;;;;;;;27.40;4.03;;;;;;;;;;5066004;28;20530;-50
2021/11/08 00:56:22;;;;;;;33.10;4.75;;;;;;;;;;5060272;28;20040;-42
2021/11/08 00:58:50;;;;;;;31.63;4.72;;;;;;;;;;5052945;28;20470;-45
2021/11/08 01:01:20;;;;;;;43.53;5.32;;;;;;;;;;5062232;28;20033;-39
2021/11/08 01:03:47;;;;;;;33.13;4.57;;;;;;;;;;5057385;28;20021;-42
2021/11/08 01:06:16;;;;;;;34.42;4.95;;;;;;;;;;5057908;28;20028;-53
2021/11/08 01:08:43;;;;;;;34.30;4.78;;;;;;;;;;5062160;28;20028;-42
2021/11/08 01:11:11;;;;;;;37.35;5.35;;;;;;;;;;5055890;28;20511;-54
2021/11/08 01:13:39;;;;;;;29.80;4.90;;;;;;;;;;5062998;28;20031;-36
2021/11/08 01:16:06;;;;;;;21.50;4.65;;;;;;;;;;5059498;28;20512;-41
2021/11/08 01:18:33;;;;;;;29.55;4.50;;;;;;;;;;5058162;28;20032;-43
2021/11/08 01:21:01;;;;;;;32.65;4.32;;;;;;;;;;5043973;28;20450;-42
2021/11/08 01:23:29;;;;;;;32.72;4.35;;;;;;;;;;5059407;28;20021;-38
2021/11/08 01:26:03;;;;;;;31.65;4.35;;;;;;;;;;5056802;28;20044;-41
2021/11/08 01:28:40;;;;;;;31.33;5.55;;;;;;;;;;5041583;28;20036;-39
2021/11/08 01:31:08;;;;;;;26.83;4.57;;;;;;;;;;5059935;28;20052;-40
2021/11/08 01:33:37;;;;;;;31.55;4.20;;;;;;;;;;5064074;28;20028;-40
2021/11/08 01:38:40;;;;;;;31.38;4.47;;;;;;;;;;5057641;28;20025;-40
2021/11/08 01:41:08;;;;;;;27.23;4.50;;;;;;;;;;5063690;28;20048;-41
2021/11/08 01:43:35;;;;;;;30.27;4.72;;;;;;;;;;5056684;28;20040;-35
2021/11/08 01:46:04;;;;;;;29.52;4.80;;;;;;;;;;5067152;28;20031;-35
2021/11/08 01:48:31;;;;;;;26.27;4.68;;;;;;;;;;5066654;28;20069;-41
2021/11/08 01:50:58;;;;;;;28.00;4.20;;;;;;;;;;5071236;28;20360;-43
2021/11/08 01:53:25;;;;;;;26.50;4.35;;;;;;;;;;5065167;28;20025;-41
2021/11/08 01:55:52;;;;;;;33.55;4.72;;;;;;;;;;5058620;28;20053;-42
2021/11/08 01:58:25;;;;;;;31.75;4.15;;;;;;;;;;5053312;28;20559;-44
2021/11/08 02:00:52;;;;;;;24.42;4.20;;;;;;;;;;5061112;28;20048;-42
2021/11/08 02:03:20;;;;;;;25.63;4.07;;;;;;;;;;5062943;28;20708;-44
2021/11/08 02:05:47;;;;;;;28.65;3.92;;;;;;;;;;5061505;28;20855;-39
2021/11/08 02:08:15;;;;;;;27.63;4.32;;;;;;;;;;5069930;28;20009;-46
2021/11/08 02:10:43;;;;;;;32.30;4.57;;;;;;;;;;5056798;28;20100;-45
2021/11/08 02:13:11;;;;;;;24.50;4.07;;;;;;;;;;5052228;28;20021;-42
2021/11/08 02:15:39;;;;;;;38.47;4.50;;;;;;;;;;5052251;28;20025;-42
2021/11/08 02:18:07;;;;;;;23.23;4.22;;;;;;;;;;5052733;28;20021;-46
2021/11/08 02:20:41;;;;;;;32.10;3.97;;;;;;;;;;5055146;28;20091;-41
2021/11/08 02:23:10;;;;;;;27.20;4.32;;;;;;;;;;5052731;28;20024;-45
2021/11/08 02:25:39;;;;;;;20.10;3.70;;;;;;;;;;5055774;28;20012;-46
2021/11/08 02:28:12;;;;;;;26.90;4.10;;;;;;;;;;5035372;28;20427;-44
2021/11/08 02:30:42;;;;;;;35.10;4.80;;;;;;;;;;5052951;28;20468;-45
2021/11/08 02:33:10;;;;;;;19.90;3.38;;;;;;;;;;5052829;28;20032;-44
2021/11/08 02:35:42;;;;;;;19.65;2.88;;;;;;;;;;5058718;28;20027;-44
2021/11/08 02:38:23;;;;;;;17.90;2.88;;;;;;;;;;5052424;28;20025;-47
2021/11/08 02:40:53;;;;;;;21.75;3.72;;;;;;;;;;5055062;28;20044;-44
2021/11/08 02:43:21;;;;;;;19.15;3.40;;;;;;;;;;5052728;28;20028;-43
2021/11/08 02:45:56;;;;;;;23.80;3.85;;;;;;;;;;5052886;28;20068;-44
2021/11/08 02:48:24;;;;;;;10.85;3.10;;;;;;;;;;5055604;28;20049;-44
2021/11/08 02:51:04;;;;;;;17.63;3.25;;;;;;;;;;5052872;28;20021;-42
2021/11/08 02:53:32;;;;;;;14.52;3.20;;;;;;;;;;5049284;28;20028;-43
2021/11/08 02:55:59;;;;;;;13.25;2.35;;;;;;;;;;5054717;28;20431;-43
2021/11/08 02:58:28;;;;;;;15.95;3.10;;;;;;;;;;5054442;28;20554;-44
2021/11/08 03:00:56;;;;;;;13.45;2.80;;;;;;;;;;5056152;28;20064;-43
2021/11/08 03:03:32;;;;;;;12.52;2.88;;;;;;;;;;5056509;28;20067;-44
2021/11/08 03:06:05;;;;;;;13.18;2.75;;;;;;;;;;5054177;28;20017;-44
2021/11/08 03:08:32;;;;;;;14.73;2.90;;;;;;;;;;5052105;28;20839;-43
2021/11/08 03:11:00;;;;;;;15.40;3.33;;;;;;;;;;5051944;28;20017;-44
2021/11/08 03:13:27;;;;;;;19.38;3.00;;;;;;;;;;5051826;28;20052;-42
2021/11/08 03:16:08;;;;;;;16.80;2.85;;;;;;;;;;5053059;28;20508;-46
2021/11/08 03:18:41;;;;;;;11.60;2.63;;;;;;;;;;5053079;28;20025;-42
2021/11/08 03:21:17;;;;;;;11.10;2.40;;;;;;;;;;5053002;28;20037;-43
2021/11/08 03:23:48;;;;;;;12.80;2.20;;;;;;;;;;5052965;28;20013;-43
2021/11/08 03:28:45;;;;;;;11.02;2.13;;;;;;;;;;5052939;28;20077;-42
2021/11/08 03:31:14;;;;;;;8.68;2.30;;;;;;;;;;5052781;28;20060;-43
2021/11/08 03:33:43;;;;;;;10.50;2.42;;;;;;;;;;5052862;28;20025;-43
2021/11/08 03:36:11;;;;;;;13.38;2.13;;;;;;;;;;5052390;28;20481;-42
2021/11/08 03:38:39;;;;;;;6.55;2.20;;;;;;;;;;5052765;28;20465;-43
2021/11/08 03:41:08;;;;;;;12.95;2.40;;;;;;;;;;5052508;28;20039;-44
2021/11/08 03:43:35;;;;;;;9.88;2.35;;;;;;;;;;5052558;28;20032;-42
2021/11/08 03:46:02;;;;;;;7.63;2.10;;;;;;;;;;5034819;28;20021;-42
2021/11/08 03:48:29;;;;;;;8.35;2.25;;;;;;;;;;5052241;28;20084;-41
2021/11/08 03:50:56;;;;;;;7.20;2.13;;;;;;;;;;5052192;28;20043;-42
2021/11/08 03:53:24;;;;;;;8.18;2.50;;;;;;;;;;5052605;28;20427;-42
2021/11/08 03:55:53;;;;;;;13.55;2.00;;;;;;;;;;5052417;28;20424;-42
2021/11/08 03:58:20;;;;;;;8.48;2.10;;;;;;;;;;5052324;28;20108;-41
2021/11/08 04:00:49;;;;;;;10.20;2.22;;;;;;;;;;5052400;28;20033;-41
2021/11/08 04:03:16;;;;;;;7.30;2.33;;;;;;;;;;5034675;28;20025;-46
2021/11/08 04:05:44;;;;;;;13.20;2.47;;;;;;;;;;5052164;28;20032;-45
2021/11/08 04:08:13;;;;;;;9.45;1.98;;;;;;;;;;5052361;28;20422;-46
2021/11/08 04:10:42;;;;;;;8.23;2.28;;;;;;;;;;5056711;28;20391;-43
2021/11/08 04:13:10;;;;;;;9.27;2.22;;;;;;;;;;5070910;28;20028;-42
2021/11/08 04:15:40;;;;;;;11.68;2.00;;;;;;;;;;5071709;28;20070;-44
2021/11/08 04:18:09;;;;;;;6.43;2.05;;;;;;;;;;5071851;28;20380;-40
2021/11/08 04:20:37;;;;;;;9.35;2.22;;;;;;;;;;5071209;28;20036;-40
2021/11/08 04:23:04;;;;;;;9.77;2.25;;;;;;;;;;5071486;28;20020;-41
2021/11/08 04:25:31;;;;;;;7.28;1.90;;;;;;;;;;5053361;28;20052;-42
2021/11/08 04:27:58;;;;;;;9.05;1.85;;;;;;;;;;5071561;28;20027;-44
2021/11/08 04:30:27;;;;;;;7.53;2.00;;;;;;;;;;5071195;28;20024;-42
2021/11/08 04:35:44;;;;;;;5.25;1.48;;;;;;;;;;5071205;28;20024;-42
2021/11/08 04:41:02;;;;;;;7.68;1.90;;;;;;;;;;5071239;28;20072;-43
2021/11/08 04:49:07;;;;;;;7.13;1.80;;;;;;;;;;5071318;28;20113;-44
2021/11/08 04:51:48;;;;;;;6.63;1.70;;;;;;;;;;5070986;28;20099;-44
2021/11/08 04:54:29;;;;;;;11.98;2.60;;;;;;;;;;5071116;28;20024;-41
2021/11/08 05:32:17;;;;;;;6.85;1.80;;;;;;;;;;5074774;28;20219;-41
2021/11/08 05:34:44;;;;;;;7.68;1.60;;;;;;;;;;5074435;28;20063;-41
2021/11/08 05:37:11;;;;;;;6.30;1.60;;;;;;;;;;5074317;28;20021;-42
2021/11/08 05:39:46;;;;;;;5.57;1.80;;;;;;;;;;5074818;28;20021;-43
2021/11/08 05:42:13;;;;;;;5.47;1.67;;;;;;;;;;5073960;28;20029;-43
2021/11/08 05:44:41;;;;;;;6.82;1.65;;;;;;;;;;5074289;28;20024;-43
2021/11/08 05:47:09;;;;;;;6.28;1.52;;;;;;;;;;5074266;28;20044;-42
2021/11/08 05:49:36;;;;;;;7.32;1.55;;;;;;;;;;5074144;28;20046;-42
2021/11/08 05:52:04;;;;;;;5.22;1.50;;;;;;;;;;5073587;28;20070;-41
2021/11/08 05:54:31;;;;;;;8.38;1.70;;;;;;;;;;5074252;28;20032;-41
2021/11/08 06:49:26;;;;;;;4.15;1.25;;;;;;;;;;5073374;28;20090;-40
2021/11/08 06:51:55;;;;;;;3.10;1.20;;;;;;;;;;5073076;28;20044;-43
2021/11/08 06:54:24;;;;;;;3.72;0.98;;;;;;;;;;5073336;28;20020;-42
2021/11/08 06:56:58;;;;;;;4.13;1.10;;;;;;;;;;5072940;28;20021;-42
2021/11/08 06:59:26;;;;;;;4.20;1.10;;;;;;;;;;5073430;28;20017;-45
2021/11/08 07:01:57;;;;;;;4.18;0.95;;;;;;;;;;5072397;28;20028;-44
2021/11/08 07:04:25;;;;;;;4.53;1.40;;;;;;;;;;5072917;28;20104;-39
2021/11/08 07:06:52;;;;;;;3.58;1.08;;;;;;;;;;5072653;28;20060;-42
2021/11/08 07:09:19;;;;;;;7.05;1.42;;;;;;;;;;5073105;28;20021;-44
2021/11/08 07:11:47;;;;;;;4.97;1.30;;;;;;;;;;5072355;28;20104;-42
2021/11/08 07:14:15;;;;;;;4.43;1.00;;;;;;;;;;5055128;28;20498;-46
2021/11/08 07:16:44;;;;;;;8.43;1.65;;;;;;;;;;5072125;28;20028;-42
2021/11/08 07:19:13;;;;;;;3.30;1.33;;;;;;;;;;5072837;28;20024;-43
2021/11/08 07:21:40;;;;;;;3.85;1.02;;;;;;;;;;5072441;28;20032;-41
2021/11/08 07:24:07;;;;;;;2.97;0.70;;;;;;;;;;5072589;28;20388;-43
2021/11/08 07:26:34;;;;;;;2.83;0.80;;;;;;;;;;5071439;28;20028;-43
2021/11/08 07:29:01;;;;;;;2.47;0.90;;;;;;;;;;5072633;28;20115;-43
2021/11/08 07:31:28;;;;;;;2.45;0.93;;;;;;;;;;5072134;28;20507;-42
2021/11/08 07:33:55;;;;;;;2.35;1.00;;;;;;;;;;5072480;28;20051;-44
2021/11/08 07:36:24;;;;;;;7.07;1.65;;;;;;;;;;5072404;28;20043;-44
2021/11/08 07:38:52;;;;;;;3.47;1.25;;;;;;;;;;5072594;28;20111;-46
2021/11/08 07:41:19;;;;;;;4.32;1.10;;;;;;;;;;5072422;28;20553;-43
2021/11/08 07:43:47;;;;;;;4.50;1.30;;;;;;;;;;5071825;28;20483;-42
2021/11/08 07:46:15;;;;;;;4.03;0.90;;;;;;;;;;5072231;28;20063;-46
2021/11/08 07:48:43;;;;;;;3.40;1.02;;;;;;;;;;5071668;28;20500;-44
2021/11/08 07:51:11;;;;;;;2.47;1.00;;;;;;;;;;5072289;28;20029;-44
2021/11/08 07:53:38;;;;;;;3.25;0.93;;;;;;;;;;5071812;28;20016;-43
2021/11/08 07:56:06;;;;;;;3.88;1.10;;;;;;;;;;5072000;28;20097;-45
2021/11/08 07:58:33;;;;;;;5.07;1.20;;;;;;;;;;5071458;28;20020;-45
2021/11/08 08:01:00;;;;;;;3.47;1.10;;;;;;;;;;5072224;28;20127;-45
2021/11/08 08:03:28;;;;;;;5.35;0.90;;;;;;;;;;5071487;28;20020;-42
2021/11/08 08:05:56;;;;;;;3.30;0.80;;;;;;;;;;5053863;28;20025;-43
2021/11/08 08:08:23;;;;;;;3.83;1.02;;;;;;;;;;5071472;28;20025;-46
2021/11/08 08:10:51;;;;;;;3.53;0.85;;;;;;;;;;5071859;28;20074;-42
2021/11/08 08:13:20;;;;;;;4.97;1.10;;;;;;;;;;5071172;28;20016;-45
2021/11/08 08:15:48;;;;;;;5.15;1.20;;;;;;;;;;5071684;28;20035;-44
2021/11/08 08:18:15;;;;;;;4.95;0.90;;;;;;;;;;5071326;28;20097;-43
2021/11/08 08:20:42;;;;;;;5.57;1.27;;;;;;;;;;5071820;28;20115;-44
2021/11/08 08:23:09;;;;;;;3.15;0.85;;;;;;;;;;5071848;28;20017;-44
2021/11/08 08:25:37;;;;;;;6.28;1.42;;;;;;;;;;5071368;28;20020;-45
2021/11/08 08:28:04;;;;;;;2.72;0.95;;;;;;;;;;5071419;28;20056;-43
2021/11/08 08:30:31;;;;;;;4.07;1.02;;;;;;;;;;5071282;28;20082;-44
2021/11/08 08:32:58;;;;;;;2.95;0.75;;;;;;;;;;5071874;28;20016;-44
2021/11/08 08:35:25;;;;;;;2.60;0.90;;;;;;;;;;5071117;28;20096;-44
2021/11/08 08:37:52;;;;;;;5.72;0.80;;;;;;;;;;5070405;28;20020;-44
2021/11/08 08:40:19;;;;;;;3.67;0.73;;;;;;;;;;5071165;28;20464;-45
2021/11/08 08:42:46;;;;;;;3.42;0.70;;;;;;;;;;5071344;28;20044;-43
2021/11/08 08:45:14;;;;;;;2.85;0.90;;;;;;;;;;5071060;28;20021;-46
2021/11/08 08:47:42;;;;;;;3.70;0.77;;;;;;;;;;5071513;28;20029;-45
2021/11/08 08:50:09;;;;;;;3.63;0.90;;;;;;;;;;5070824;28;20051;-43
2021/11/08 08:52:36;;;;;;;3.28;1.00;;;;;;;;;;5071491;28;20468;-44
2021/11/08 08:55:03;;;;;;;2.38;0.80;;;;;;;;;;5071162;28;20037;-41
2021/11/08 08:57:30;;;;;;;3.45;0.75;;;;;;;;;;5071111;28;20032;-45
2021/11/08 08:59:57;;;;;;;3.22;1.17;;;;;;;;;;5070917;28;20100;-41
2021/11/08 09:02:24;;;;;;;4.35;0.85;;;;;;;;;;5071495;28;20025;-44
2021/11/08 09:04:51;;;;;;;2.08;0.88;;;;;;;;;;5071344;28;20040;-43
2021/11/08 09:07:18;;;;;;;1.38;0.52;;;;;;;;;;5070787;28;20048;-45
2021/11/08 09:09:45;;;;;;;2.92;0.80;;;;;;;;;;5071444;28;20502;-41
2021/11/08 09:12:13;;;;;;;4.03;1.20;;;;;;;;;;5070627;28;20055;-40
2021/11/08 09:14:40;;;;;;;3.58;1.00;;;;;;;;;;5071062;28;20078;-44
2021/11/08 09:17:08;;;;;;;3.00;0.93;;;;;;;;;;5070808;28;20031;-41
2021/11/08 09:19:35;;;;;;;2.58;0.70;;;;;;;;;;5070936;28;20025;-45
2021/11/08 09:22:02;;;;;;;6.80;1.00;;;;;;;;;;5054300;28;20045;-43
2021/11/08 09:24:29;;;;;;;2.65;0.80;;;;;;;;;;5051245;28;20527;-44
2021/11/08 09:26:56;;;;;;;4.30;0.90;;;;;;;;;;5050556;28;20466;-43
2021/11/08 09:29:23;;;;;;;6.55;1.02;;;;;;;;;;5050868;28;20029;-42
2021/11/08 09:31:50;;;;;;;2.40;0.60;;;;;;;;;;5050599;28;20041;-41
2021/11/08 09:34:21;;;;;;;2.88;0.80;;;;;;;;;;5032245;28;20480;-41
2021/11/08 09:36:48;;;;;;;6.40;1.10;;;;;;;;;;5050361;28;20024;-40
2021/11/08 09:39:24;;;;;;;4.70;1.15;;;;;;;;;;5050421;28;20029;-42
2021/11/08 09:41:51;;;;;;;6.95;0.93;;;;;;;;;;5050047;28;20037;-44
2021/11/08 09:44:19;;;;;;;3.70;0.95;;;;;;;;;;5050418;28;20373;-43
2021/11/08 09:46:46;;;;;;;2.58;0.98;;;;;;;;;;5052854;28;20473;-42
2021/11/08 09:49:13;;;;;;;4.60;1.00;;;;;;;;;;5051578;28;20053;-40
2021/11/08 09:51:42;;;;;;;3.17;0.95;;;;;;;;;;5053563;28;20526;-37
2021/11/08 09:54:10;;;;;;;2.95;0.90;;;;;;;;;;5052791;28;20028;-36
2021/11/08 09:56:39;;;;;;;2.83;0.85;;;;;;;;;;5053556;28;20025;-42
2021/11/08 09:59:06;;;;;;;3.15;0.80;;;;;;;;;;5053047;28;20028;-40
2021/11/08 10:01:34;;;;;;;3.88;1.02;;;;;;;;;;5053338;28;20029;-41
2021/11/08 10:04:01;;;;;;;8.63;1.00;;;;;;;;;;5053393;28;20025;-42
2021/11/08 10:06:28;;;;;;;5.95;1.17;;;;;;;;;;5054368;28;20021;-42
2021/11/08 10:08:55;;;;;;;4.97;0.98;;;;;;;;;;5053360;28;20385;-41
2021/11/08 10:11:23;;;;;;;4.32;1.10;;;;;;;;;;5053903;28;20017;-40
2021/11/08 10:13:51;;;;;;;6.20;0.90;;;;;;;;;;5053344;28;20096;-40
2021/11/08 10:16:20;;;;;;;5.43;0.77;;;;;;;;;;5053995;28;20017;-42
2021/11/08 10:18:49;;;;;;;4.40;1.20;;;;;;;;;;5053205;28;20021;-44
2021/11/08 10:21:18;;;;;;;5.03;0.90;;;;;;;;;;5053912;28;20029;-41
2021/11/08 10:23:46;;;;;;;5.60;1.00;;;;;;;;;;5053297;28;20554;-44
2021/11/08 10:26:15;;;;;;;4.72;1.30;;;;;;;;;;5053917;28;20423;-43
2021/11/08 10:28:43;;;;;;;2.78;0.80;;;;;;;;;;5053013;28;20016;-42
2021/11/08 10:31:15;;;;;;;2.95;1.00;;;;;;;;;;5035900;28;20052;-42
2021/11/08 10:33:43;;;;;;;3.25;0.95;;;;;;;;;;5053057;28;20043;-41
2021/11/08 10:36:12;;;;;;;6.40;1.10;;;;;;;;;;5053257;28;20055;-43
2021/11/08 10:38:41;;;;;;;4.50;0.80;;;;;;;;;;5053655;28;20021;-42
2021/11/08 10:41:11;;;;;;;5.55;1.10;;;;;;;;;;5052754;28;20032;-42
2021/11/08 10:43:39;;;;;;;6.38;0.80;;;;;;;;;;5053379;28;20168;-44
2021/11/08 10:46:14;;;;;;;3.78;0.88;;;;;;;;;;5053007;28;20032;-43
2021/11/08 10:49:13;;;;;;;3.80;0.80;;;;;;;;;;5053111;28;20041;-42
2021/11/08 10:51:42;;;;;;;6.32;1.15;;;;;;;;;;5009427;28;20041;-44
2021/11/08 10:54:13;;;;;;;6.60;1.10;;;;;;;;;;5053472;28;20393;-42
2021/11/08 10:56:40;;;;;;;3.55;0.90;;;;;;;;;;5053037;28;20428;-44
2021/11/08 10:59:14;;;;;;;3.28;1.00;;;;;;;;;;5052932;28;20111;-40
2021/11/08 11:01:55;;;;;;;4.80;1.00;;;;;;;;;;5052354;28;20028;-43
2021/11/08 11:04:38;;;;;;;3.83;1.15;;;;;;;;;;5053336;28;20025;-41
2021/11/08 11:07:04;;;;;;;;;;;;;;;;;;5053141;28;20056;-44
2021/11/08 11:09:35;;;;;;;3.00;0.95;;;;;;;;;;5052805;28;20364;-40
2021/11/08 11:12:10;;;;;;;3.40;1.00;;;;;;;;;;5052435;28;20047;-43
2021/11/08 11:14:48;;;;;;;3.45;1.20;;;;;;;;;;5053048;28;20047;-43
2021/11/08 11:17:17;;;;;;;4.88;1.00;;;;;;;;;;5052747;28;20048;-42
2021/11/08 11:19:45;;;;;;;7.13;1.58;;;;;;;;;;5052878;28;20029;-42
2021/11/08 11:22:15;;;;;;;2.83;0.98;;;;;;;;;;5052300;28;20029;-43
2021/11/08 11:24:46;;;;;;;3.17;0.80;;;;;;;;;;5053032;28;20024;-45
2021/11/08 11:27:22;;;;;;;3.00;0.63;;;;;;;;;;5052382;28;20029;-44
2021/11/08 11:29:49;;;;;;;3.78;0.90;;;;;;;;;;5052449;28;20044;-44
2021/11/08 11:32:20;;;;;;;3.20;0.90;;;;;;;;;;5052091;28;20048;-43
2021/11/08 11:34:47;;;;;;;2.45;0.80;;;;;;;;;;5052297;28;20024;-39
2021/11/08 11:37:16;;;;;;;3.53;1.00;;;;;;;;;;5051762;28;20017;-43
2021/11/08 11:39:43;;;;;;;5.88;1.00;;;;;;;;;;5052197;28;20033;-42
2021/11/08 11:42:11;;;;;;;4.32;1.10;;;;;;;;;;5071563;28;20036;-45
2021/11/08 11:44:38;;;;;;;7.18;0.80;;;;;;;;;;5072071;28;20016;-43
2021/11/08 11:47:13;;;;;;;15.48;1.40;;;;;;;;;;5066007;28;20071;-42
2021/11/08 11:49:42;;;;;;;9.30;1.50;;;;;;;;;;5069707;28;20049;-46
2021/11/08 11:52:09;;;;;;;5.90;1.20;;;;;;;;;;5069891;28;20380;-43
2021/11/08 11:54:36;;;;;;;9.10;1.15;;;;;;;;;;5071467;28;20025;-45
2021/11/08 11:57:04;;;;;;;10.02;1.23;;;;;;;;;;5070779;28;20344;-45
2021/11/08 11:59:31;;;;;;;6.13;1.30;;;;;;;;;;5070821;28;20005;-44
2021/11/08 12:01:59;;;;;;;15.68;1.40;;;;;;;;;;5071027;28;20032;-41
2021/11/08 12:04:27;;;;;;;4.53;1.73;;;;;;;;;;5069978;28;20097;-42
2021/11/08 12:06:55;;;;;;;7.75;1.10;;;;;;;;;;5071607;28;20029;-41
2021/11/08 12:09:23;;;;;;;6.78;1.30;;;;;;;;;;5071264;28;20040;-44
2021/11/08 12:11:52;;;;;;;6.75;1.35;;;;;;;;;;5070595;28;20019;-50
2021/11/08 12:14:20;;;;;;;16.65;1.45;;;;;;;;;;5060316;28;20543;-34
2021/11/08 12:16:50;;;;;;;7.57;1.40;;;;;;;;;;5071457;28;20056;-38
2021/11/08 12:19:19;;;;;;;25.42;1.90;;;;;;;;;;5052314;28;20024;-33
2021/11/08 12:21:46;;;;;;;25.20;2.10;;;;;;;;;;5068489;28;20081;-34
2021/11/08 12:24:22;;;;;;;23.10;2.40;;;;;;;;;;5070930;28;20055;-43
2021/11/08 12:26:51;;;;;;;18.08;2.22;;;;;;;;;;5061925;28;20024;-34
2021/11/08 12:29:22;;;;;;;33.88;3.13;;;;;;;;;;5050169;28;20499;-40
2021/11/08 12:32:00;;;;;;;28.05;3.20;;;;;;;;;;5050106;28;20469;-34
2021/11/08 12:34:27;;;;;;;27.40;2.63;;;;;;;;;;5050376;28;20043;-38
2021/11/08 12:36:59;;;;;;;28.17;2.90;;;;;;;;;;5050709;28;20481;-35
2021/11/08 12:39:26;;;;;;;22.67;2.65;;;;;;;;;;5050761;28;20082;-35
2021/11/08 12:41:56;;;;;;;23.33;3.13;;;;;;;;;;5050613;28;20028;-42
2021/11/08 12:44:24;;;;;;;20.25;3.78;;;;;;;;;;5049703;28;20393;-46
2021/11/08 12:47:01;;;;;;;28.17;3.35;;;;;;;;;;5049899;28;20837;-47
2021/11/08 12:49:30;;;;;;;41.20;3.80;;;;;;;;;;5050346;28;20052;-43
2021/11/08 12:52:17;;;;;;;44.97;3.95;;;;;;;;;;5049949;28;20025;-40
2021/11/08 12:54:49;;;;;;;41.05;4.25;;;;;;;;;;5062117;28;20032;-50
2021/11/08 12:57:17;;;;;;;38.58;3.67;;;;;;;;;;5050181;28;20116;-43
2021/11/08 12:59:46;;;;;;;38.95;4.43;;;;;;;;;;5050815;28;20066;-48
2021/11/08 13:02:41;;;;;;;42.70;3.60;;;;;;;;;;5064790;28;20036;-40
2021/11/08 13:05:10;;;;;;;39.90;4.28;;;;;;;;;;5068182;28;20028;-37
2021/11/08 13:07:38;;;;;;;37.40;4.78;;;;;;;;;;5070244;28;20024;-37
2021/11/08 13:10:07;;;;;;;57.70;5.97;;;;;;;;;;5056114;28;20033;-35
2021/11/08 13:12:40;;;;;;;38.95;5.10;;;;;;;;;;5050246;28;20028;-36
2021/11/08 13:15:07;;;;;;;37.13;4.43;;;;;;;;;;5049482;28;20025;-51
2021/11/08 13:17:45;;;;;;;44.45;4.32;;;;;;;;;;5050552;28;20100;-45
2021/11/08 13:20:12;;;;;;;42.08;4.18;;;;;;;;;;5049909;28;20099;-47
2021/11/08 13:22:44;;;;;;;49.78;5.20;;;;;;;;;;5055136;28;20032;-41
2021/11/08 13:25:13;;;;;;;36.27;3.73;;;;;;;;;;5055654;28;20021;-44
2021/11/08 13:27:44;;;;;;;31.90;3.20;;;;;;;;;;5064070;28;20892;-42
2021/11/08 13:30:12;;;;;;;34.22;3.83;;;;;;;;;;5068054;28;20025;-41
2021/11/08 13:32:39;;;;;;;35.67;4.57;;;;;;;;;;5071048;28;20092;-37
2021/11/08 13:35:11;;;;;;;28.42;3.70;;;;;;;;;;5061412;28;20037;-48
2021/11/08 13:37:42;;;;;;;29.02;3.97;;;;;;;;;;5042750;28;20389;-35
2021/11/08 13:40:17;;;;;;;44.92;3.88;;;;;;;;;;5051743;28;20033;-57
2021/11/08 13:42:44;;;;;;;42.22;4.38;;;;;;;;;;5068713;28;20028;-41
2021/11/08 13:45:12;;;;;;;31.02;4.97;;;;;;;;;;5064961;28;20052;-40
2021/11/08 13:47:43;;;;;;;34.03;5.85;;;;;;;;;;5061658;28;20507;-40
2021/11/08 13:50:11;;;;;;;48.03;5.67;;;;;;;;;;5052776;28;20040;-43
2021/11/08 13:52:40;;;;;;;47.60;6.13;;;;;;;;;;5065821;28;20392;-43
2021/11/08 13:55:09;;;;;;;49.88;5.20;;;;;;;;;;5056964;28;20032;-40
2021/11/08 13:57:39;;;;;;;52.35;4.78;;;;;;;;;;5055622;28;20492;-33
2021/11/08 14:00:08;;;;;;;52.67;5.53;;;;;;;;;;5054342;28;20493;-40
2021/11/08 14:02:37;;;;;;;49.58;5.72;;;;;;;;;;5055539;28;20037;-42
2021/11/08 14:05:05;;;;;;;41.28;5.60;;;;;;;;;;5060919;28;20117;-35
2021/11/08 14:07:33;;;;;;;44.95;4.90;;;;;;;;;;5038570;28;20035;-43
2021/11/08 14:10:00;;;;;;;47.22;5.22;;;;;;;;;;5061835;28;20028;-39
2021/11/08 14:12:30;;;;;;;34.38;4.25;;;;;;;;;;5065420;28;20027;-41
2021/11/08 14:14:57;;;;;;;55.67;6.60;;;;;;;;;;5055108;28;20396;-44
2021/11/08 14:17:26;;;;;;;61.05;6.10;;;;;;;;;;5060962;28;20024;-45
2021/11/08 14:19:54;;;;;;;50.58;5.60;;;;;;;;;;5064964;28;20049;-43
2021/11/08 14:22:29;;;;;;;41.03;5.00;;;;;;;;;;5059237;28;20020;-39
2021/11/08 14:24:57;;;;;;;45.75;4.80;;;;;;;;;;5053996;28;20017;-45
2021/11/08 14:27:26;;;;;;;44.75;4.72;;;;;;;;;;5057316;28;20074;-44
2021/11/08 14:29:53;;;;;;;41.00;4.00;;;;;;;;;;5055918;28;20029;-40
2021/11/08 14:32:26;;;;;;;27.02;3.72;;;;;;;;;;5056339;28;20103;-44
2021/11/08 14:35:09;;;;;;;30.42;3.72;;;;;;;;;;5055274;28;20032;-42
2021/11/08 14:38:01;;;;;;;22.40;3.03;;;;;;;;;;5055106;28;20033;-46
2021/11/08 14:40:36;;;;;;;18.25;3.05;;;;;;;;;;5056307;28;20033;-45
2021/11/08 14:43:23;;;;;;;22.17;2.95;;;;;;;;;;5053653;28;21757;-44
2021/11/08 14:45:57;;;;;;;33.80;3.47;;;;;;;;;;5053580;28;20024;-46
2021/11/08 14:48:25;;;;;;;32.08;3.70;;;;;;;;;;5053612;28;20036;-50
2021/11/08 14:50:52;;;;;;;36.75;3.30;;;;;;;;;;5065492;28;20028;-43
2021/11/08 14:53:19;;;;;;;23.00;2.90;;;;;;;;;;5061034;28;20036;-42
2021/11/08 14:55:46;;;;;;;24.95;3.50;;;;;;;;;;5063703;28;20048;-37
2021/11/08 14:58:15;;;;;;;22.70;3.28;;;;;;;;;;5065117;28;20136;-44
2021/11/08 15:00:42;;;;;;;32.63;3.63;;;;;;;;;;5062602;28;20033;-41
2021/11/08 15:03:11;;;;;;;27.00;3.38;;;;;;;;;;5045514;28;20023;-41
2021/11/08 15:05:39;;;;;;;25.65;2.92;;;;;;;;;;5055132;28;20039;-43
2021/11/08 15:08:11;;;;;;;38.80;3.80;;;;;;;;;;5050695;28;20037;-37
2021/11/08 15:10:40;;;;;;;27.30;2.83;;;;;;;;;;5052453;28;20055;-46
2021/11/08 15:13:09;;;;;;;40.80;3.67;;;;;;;;;;5050042;28;20024;-46
2021/11/08 15:15:39;;;;;;;39.83;3.83;;;;;;;;;;5049849;28;20087;-44
2021/11/08 15:18:11;;;;;;;27.38;3.65;;;;;;;;;;5049561;28;20139;-43
2021/11/08 15:20:44;;;;;;;32.73;4.30;;;;;;;;;;5049524;28;20036;-42
2021/11/08 15:23:16;;;;;;;51.30;4.18;;;;;;;;;;5050392;28;20342;-41
2021/11/08 15:25:43;;;;;;;36.30;4.80;;;;;;;;;;5052551;28;20017;-40
2021/11/08 15:28:10;;;;;;;32.63;4.43;;;;;;;;;;5049750;28;20025;-42
2021/11/08 15:30:39;;;;;;;41.60;4.53;;;;;;;;;;5048555;28;21294;-49
2021/11/08 15:33:10;;;;;;;58.35;7.20;;;;;;;;;;5049779;28;20029;-38
2021/11/08 15:35:39;;;;;;;70.30;10.50;;;;;;;;;;5048908;28;20029;-39
2021/11/08 15:38:09;;;;;;;76.55;12.57;;;;;;;;;;5066082;28;20584;-45
2021/11/08 15:40:36;;;;;;;92.13;15.15;;;;;;;;;;5066366;28;20449;-44
2021/11/08 15:43:03;;;;;;;90.72;16.65;;;;;;;;;;5062212;28;20016;-43
2021/11/08 15:45:31;;;;;;;94.05;16.30;;;;;;;;;;5049809;28;20098;-45
2021/11/08 15:47:59;;;;;;;114.00;16.14;;;;;;;;;;4979608;28;2467967;-41
2021/11/08 15:50:26;;;;;;;90.80;16.55;;;;;;;;;;5056348;28;20025;-43
2021/11/08 15:52:53;;;;;;;80.88;15.32;;;;;;;;;;5053348;28;20025;-44
2021/11/08 15:55:23;;;;;;;83.78;14.90;;;;;;;;;;5059019;28;20111;-47
2021/11/08 15:57:50;;;;;;;94.18;17.45;;;;;;;;;;5070957;28;20104;-45
2021/11/08 16:00:17;;;;;;;84.68;16.83;;;;;;;;;;5071349;28;20024;-44
2021/11/08 16:02:44;;;;;;;101.13;19.00;;;;;;;;;;5069601;28;20060;-46
2021/11/08 16:05:11;;;;;;;105.75;20.27;;;;;;;;;;5070468;28;20074;-45
2021/11/08 16:07:41;;;;;;;86.65;18.58;;;;;;;;;;5063257;28;20031;-47
2021/11/08 16:10:08;;;;;;;97.63;17.02;;;;;;;;;;5070095;28;20742;-48
2021/11/08 16:12:36;;;;;;;92.30;17.45;;;;;;;;;;5070682;28;20476;-46
2021/11/08 16:15:03;;;;;;;102.72;15.90;;;;;;;;;;5052753;28;20025;-46
2021/11/08 16:17:30;;;;;;;106.78;17.20;;;;;;;;;;5070156;28;20047;-45
2021/11/08 16:19:57;;;;;;;98.60;14.93;;;;;;;;;;5069435;28;20052;-42
2021/11/08 16:22:24;;;;;;;109.28;17.13;;;;;;;;;;5070764;28;20029;-45
2021/11/08 16:24:51;;;;;;;108.70;16.27;;;;;;;;;;5054243;28;20105;-55
2021/11/08 16:27:18;;;;;;;108.15;15.45;;;;;;;;;;5052222;28;20074;-45
2021/11/08 16:29:45;;;;;;;98.38;15.82;;;;;;;;;;5070865;28;20047;-42
2021/11/08 16:32:34;;;;;;;100.70;15.20;;;;;;;;;;5069447;28;20048;-44
2021/11/08 16:35:02;;;;;;;105.10;14.65;;;;;;;;;;5070643;28;20071;-46